createdAt,value
2023-03-11T00:01:18.339Z,74.55
2023-03-11T00:03:45.401Z,74.42
2023-03-11T00:06:14.646Z,74.29
2023-03-11T00:08:44.169Z,74.27
2023-03-11T00:11:12.278Z,74.47
2023-03-11T00:13:45.267Z,74.78
2023-03-11T00:16:13.256Z,74.68
2023-03-11T00:18:51.932Z,74.93
2023-03-11T00:21:19.846Z,75.25
2023-03-11T00:23:48.350Z,75.14
2023-03-11T00:26:16.500Z,75.12
2023-03-11T00:28:48.053Z,75.08
2023-03-11T00:31:26.332Z,75.15
2023-03-11T00:34:18.270Z,75.24
2023-03-11T00:36:48.931Z,75.49
2023-03-11T00:39:17.376Z,75.35
2023-03-11T00:41:46.433Z,75.48
2023-03-11T00:44:17.157Z,75.60
2023-03-11T00:46:45.606Z,75.79
2023-03-11T00:49:16.677Z,75.68
2023-03-11T00:51:44.564Z,75.63
2023-03-11T00:54:16.916Z,75.65
2023-03-11T00:56:46.783Z,75.64
2023-03-11T00:59:18.767Z,75.75
2023-03-11T01:01:47.409Z,75.49
2023-03-11T01:04:15.597Z,75.43
2023-03-11T01:06:45.784Z,75.77
2023-03-11T01:09:14.669Z,75.83
2023-03-11T01:11:44.821Z,75.73
2023-03-11T01:14:12.423Z,75.81
2023-03-11T01:16:40.305Z,75.89
2023-03-11T01:19:12.027Z,75.60
2023-03-11T01:21:43.363Z,75.56
2023-03-11T01:24:13.142Z,75.98
2023-03-11T01:26:42.118Z,75.98
2023-03-11T01:29:09.841Z,75.89
2023-03-11T01:31:38.018Z,76.00
2023-03-11T01:34:05.460Z,76.05
2023-03-11T01:36:35.656Z,76.32
2023-03-11T01:39:07.342Z,76.52
2023-03-11T01:41:35.907Z,76.57
2023-03-11T01:44:05.891Z,76.53
2023-03-11T01:46:54.493Z,76.70
2023-03-11T01:49:28.753Z,76.46
2023-03-11T01:52:03.265Z,76.63
2023-03-11T01:54:37.063Z,76.78
2023-03-11T01:57:06.359Z,76.68
2023-03-11T01:59:40.791Z,76.63
2023-03-11T02:02:25.514Z,76.54
2023-03-11T02:04:55.436Z,76.74
2023-03-11T02:07:25.485Z,76.51
2023-03-11T02:10:01.662Z,76.56
2023-03-11T02:12:32.351Z,76.47
2023-03-11T02:15:01.202Z,76.86
2023-03-11T02:17:36.101Z,76.66
2023-03-11T02:20:25.608Z,76.70
2023-03-11T02:22:56.813Z,76.44
2023-03-11T02:25:34.275Z,76.34
2023-03-11T02:28:09.504Z,76.26
2023-03-11T02:30:42.715Z,76.29
2023-03-11T02:33:10.822Z,76.83
2023-03-11T02:35:40.206Z,76.88
2023-03-11T02:38:09.632Z,76.92
2023-03-11T02:40:45.366Z,76.65
2023-03-11T02:43:14.268Z,76.63
2023-03-11T02:45:45.602Z,76.53
2023-03-11T02:48:14.080Z,76.55
2023-03-11T02:50:44.196Z,76.64
2023-03-11T02:53:13.527Z,76.55
2023-03-11T02:55:41.213Z,76.97
2023-03-11T02:58:11.331Z,76.65
2023-03-11T03:00:39.467Z,77.19
2023-03-11T03:03:10.350Z,76.84
2023-03-11T03:05:38.173Z,76.80
2023-03-11T03:08:08.142Z,76.77
2023-03-11T03:10:35.635Z,77.00
2023-03-11T03:13:08.310Z,76.93
2023-03-11T03:15:39.026Z,77.05
2023-03-11T03:18:08.787Z,76.73
2023-03-11T03:20:39.502Z,76.79
2023-03-11T03:23:09.317Z,76.78
2023-03-11T03:25:37.465Z,76.51
2023-03-11T03:28:07.114Z,76.16
2023-03-11T03:30:39.567Z,76.63
2023-03-11T03:33:07.003Z,76.40
2023-03-11T03:35:43.706Z,76.40
2023-03-11T03:38:22.911Z,76.74
2023-03-11T03:40:52.482Z,77.02
2023-03-11T03:43:21.006Z,77.06
2023-03-11T03:46:01.373Z,77.26
2023-03-11T03:48:31.936Z,77.00
2023-03-11T03:51:04.377Z,77.13
2023-03-11T03:57:00.221Z,78.05
2023-03-11T03:59:31.162Z,77.74
2023-03-11T04:02:03.202Z,77.92
2023-03-11T04:04:35.196Z,78.02
2023-03-11T04:07:10.431Z,78.04
2023-03-11T04:09:45.575Z,78.48
2023-03-11T04:12:14.598Z,78.46
2023-03-11T04:14:44.802Z,78.87
2023-03-11T04:17:38.159Z,78.72
2023-03-11T04:20:08.001Z,79.02
2023-03-11T04:22:40.079Z,79.18
2023-03-11T04:25:14.539Z,79.50
2023-03-11T04:27:51.816Z,79.99
2023-03-11T04:30:24.457Z,80.22
2023-03-11T04:33:01.064Z,80.24
2023-03-11T04:35:30.734Z,80.20
2023-03-11T04:38:00.796Z,80.71
2023-03-11T04:40:32.009Z,80.86
2023-03-11T04:43:08.162Z,80.56
2023-03-11T04:45:38.425Z,80.10
2023-03-11T04:48:09.238Z,80.63
2023-03-11T04:50:36.880Z,80.70
2023-03-11T04:53:08.197Z,80.36
2023-03-11T04:55:38.715Z,80.69
2023-03-11T04:58:10.396Z,80.86
2023-03-11T05:00:46.749Z,80.97
2023-03-11T05:03:18.618Z,80.74
2023-03-11T05:05:48.420Z,80.75
2023-03-11T05:08:20.544Z,80.82
2023-03-11T05:10:52.309Z,80.77
2023-03-11T05:13:30.543Z,80.81
2023-03-11T05:16:06.719Z,80.46
2023-03-11T05:18:35.062Z,80.69
2023-03-11T05:21:15.037Z,80.90
2023-03-11T05:23:49.375Z,80.84
2023-03-11T05:26:24.640Z,80.41
2023-03-11T05:28:59.491Z,80.55
2023-03-11T05:31:28.665Z,80.62
2023-03-11T05:34:01.927Z,80.48
2023-03-11T05:36:34.415Z,80.31
2023-03-11T05:39:05.403Z,80.64
2023-03-11T05:41:46.573Z,80.71
2023-03-11T05:44:17.688Z,80.38
2023-03-11T05:46:48.107Z,79.85
2023-03-11T05:49:16.872Z,79.74
2023-03-11T05:51:52.288Z,79.80
2023-03-11T05:54:20.664Z,79.96
2023-03-11T05:56:52.925Z,80.07
2023-03-11T05:59:23.862Z,80.37
2023-03-11T06:01:59.092Z,80.38
2023-03-11T06:04:31.296Z,80.34
2023-03-11T06:07:01.001Z,80.78
2023-03-11T06:09:39.290Z,80.86
2023-03-11T06:12:15.397Z,80.94
2023-03-11T06:15:07.588Z,80.81
2023-03-11T06:17:38.694Z,80.50
2023-03-11T06:20:09.340Z,80.17
2023-03-11T06:22:45.520Z,80.01
2023-03-11T06:25:15.838Z,79.52
2023-03-11T06:27:48.325Z,79.02
2023-03-11T06:30:20.679Z,78.48
2023-03-11T06:33:17.433Z,78.34
2023-03-11T06:36:00.616Z,78.05
2023-03-11T06:38:32.262Z,77.52
2023-03-11T06:41:07.689Z,77.71
2023-03-11T06:43:44.645Z,77.91
2023-03-11T06:46:22.247Z,77.49
2023-03-11T06:48:59.142Z,77.07
2023-03-11T06:51:36.111Z,77.26
2023-03-11T06:54:10.985Z,77.25
2023-03-11T06:56:43.840Z,76.52
2023-03-11T06:59:15.145Z,76.17
2023-03-11T07:01:47.857Z,76.01
2023-03-11T07:04:16.888Z,76.02
2023-03-11T07:06:47.871Z,75.66
2023-03-11T07:09:27.295Z,74.97
2023-03-11T07:11:55.869Z,75.01
2023-03-11T07:14:36.032Z,74.90
2023-03-11T07:17:10.369Z,74.60
2023-03-11T07:19:49.409Z,74.24
2023-03-11T07:22:25.320Z,73.85
2023-03-11T07:24:58.370Z,74.00
2023-03-11T07:27:27.528Z,74.14
2023-03-11T07:30:01.962Z,74.38
2023-03-11T07:32:34.854Z,74.53
2023-03-11T07:35:08.236Z,74.82
2023-03-11T07:37:39.736Z,75.49
2023-03-11T07:40:13.345Z,75.34
2023-03-11T07:42:40.780Z,75.75
2023-03-11T07:45:14.040Z,76.01
2023-03-11T07:47:49.648Z,76.00
2023-03-11T07:50:18.764Z,76.26
2023-03-11T16:14:43.933Z,94.37
2023-03-11T16:17:19.403Z,93.68
2023-03-11T16:20:21.509Z,93.34
2023-03-11T16:22:54.839Z,93.49
2023-03-11T16:25:38.511Z,93.62
2023-03-11T16:28:15.257Z,93.74
2023-03-11T16:30:49.596Z,93.78
2023-03-11T16:33:25.279Z,93.99
2023-03-11T16:36:02.623Z,93.76
2023-03-11T16:38:43.561Z,93.90
2023-03-11T16:41:43.417Z,93.78
2023-03-11T16:45:04.187Z,93.79
2023-03-11T16:48:00.513Z,94.07
2023-03-11T16:50:42.438Z,94.19
2023-03-11T16:53:23.706Z,94.30
2023-03-11T16:55:59.898Z,93.95
2023-03-11T16:58:28.260Z,94.06
2023-03-11T17:01:00.997Z,94.17
2023-03-11T17:03:42.780Z,94.31
2023-03-11T17:06:14.379Z,94.53
2023-03-11T17:08:53.154Z,95.05
2023-03-11T17:11:30.240Z,95.05
2023-03-11T17:14:13.628Z,94.87
2023-03-11T17:16:51.362Z,94.86
2023-03-11T17:19:24.215Z,95.04
2023-03-11T17:21:52.896Z,95.22
2023-03-11T17:24:27.736Z,95.21
2023-03-11T17:26:59.571Z,95.21
2023-03-11T17:29:32.321Z,95.35
2023-03-11T17:32:05.584Z,95.58
2023-03-11T17:34:36.684Z,95.51
2023-03-11T17:37:11.861Z,95.52
2023-03-11T17:39:45.629Z,95.37
2023-03-11T17:42:17.084Z,95.25
2023-03-11T17:44:52.078Z,95.30
2023-03-11T17:47:25.431Z,95.55
2023-03-11T17:49:57.596Z,95.44
2023-03-11T17:52:31.085Z,95.50
2023-03-11T17:55:02.813Z,95.63
2023-03-11T17:57:45.565Z,95.75
2023-03-11T18:00:19.479Z,95.69
2023-03-11T18:02:57.986Z,95.40
2023-03-11T18:05:29.202Z,95.31
2023-03-11T18:08:01.994Z,95.51
2023-03-11T18:10:32.129Z,95.30
2023-03-11T18:13:00.782Z,95.35
2023-03-11T18:15:31.635Z,95.74
2023-03-11T18:18:05.325Z,95.39
2023-03-11T18:20:39.482Z,95.38
2023-03-11T18:23:11.309Z,95.45
2023-03-11T18:25:42.846Z,95.38
2023-03-11T18:28:12.564Z,95.22
2023-03-11T18:30:44.594Z,95.38
2023-03-11T18:33:17.120Z,95.35
2023-03-11T18:35:49.246Z,95.73
2023-03-11T18:38:26.045Z,96.07
2023-03-11T18:41:03.404Z,96.23
2023-03-11T18:43:31.244Z,96.49
2023-03-11T18:46:03.198Z,96.57
2023-03-11T18:48:33.506Z,96.47
2023-03-11T18:51:07.029Z,96.84
2023-03-11T18:53:37.155Z,97.13
2023-03-11T18:56:16.191Z,97.58
2023-03-11T18:58:47.316Z,97.53
2023-03-11T19:01:44.161Z,97.84
2023-03-11T19:04:12.874Z,97.82
2023-03-11T19:07:04.623Z,98.15
2023-03-11T19:09:47.414Z,97.90
2023-03-11T19:12:20.347Z,97.99
2023-03-11T19:14:56.652Z,97.95
2023-03-11T19:17:26.692Z,97.90
2023-03-11T19:19:59.052Z,97.80
2023-03-11T19:22:35.933Z,97.67
2023-03-11T19:25:05.996Z,97.55
2023-03-11T19:27:40.359Z,97.41
2023-03-11T19:30:09.564Z,97.48
2023-03-11T19:32:38.815Z,97.42
2023-03-11T19:35:13.748Z,97.20
2023-03-11T19:38:13.164Z,96.77
2023-03-11T19:40:46.564Z,96.84
2023-03-11T19:43:17.937Z,96.87
2023-03-11T19:46:13.435Z,96.90
2023-03-11T19:49:00.454Z,97.15
2023-03-11T19:51:50.021Z,97.53
2023-03-11T19:54:26.430Z,97.55
2023-03-11T19:57:21.246Z,97.71
2023-03-11T20:00:00.826Z,97.81
2023-03-11T20:02:34.470Z,98.15
2023-03-11T20:05:07.820Z,98.36
2023-03-11T20:07:40.906Z,98.46
2023-03-11T20:10:17.527Z,99.06
2023-03-11T20:13:01.460Z,99.17
2023-03-11T20:15:30.637Z,99.12
2023-03-11T20:18:09.942Z,99.20
2023-03-11T20:20:43.128Z,99.75
2023-03-11T20:23:18.170Z,99.78
2023-03-11T20:25:51.330Z,99.81
2023-03-11T20:28:20.123Z,99.84
2023-03-11T20:30:55.068Z,100.00
2023-03-11T20:33:25.907Z,100.00
2023-03-11T20:36:04.408Z,100.00
2023-03-11T20:38:39.205Z,100.00
2023-03-11T20:41:09.292Z,100.00
2023-03-11T20:43:38.798Z,100.00
2023-03-11T20:46:07.529Z,100.00
2023-03-11T20:48:41.083Z,100.00
2023-03-11T20:51:28.156Z,100.00
2023-03-11T20:54:07.822Z,100.00
2023-03-11T20:56:37.791Z,100.00
2023-03-11T20:59:10.581Z,100.00
2023-03-11T21:01:51.975Z,100.00
2023-03-11T21:04:26.000Z,100.00
2023-03-11T21:07:00.785Z,100.00
2023-03-11T21:09:35.221Z,100.00
2023-03-11T21:12:31.124Z,100.00
2023-03-11T21:15:06.165Z,100.00
2023-03-11T21:17:39.471Z,100.00
2023-03-11T21:20:12.176Z,100.00
2023-03-11T21:23:08.328Z,100.00
2023-03-11T21:25:44.161Z,100.00
2023-03-11T21:28:47.899Z,100.00
2023-03-11T21:31:22.426Z,100.00
2023-03-11T21:34:07.475Z,100.00
2023-03-11T21:36:41.924Z,100.00
2023-03-11T21:39:09.628Z,100.00
2023-03-11T21:41:38.271Z,100.00
2023-03-11T21:44:12.209Z,100.00
2023-03-11T21:46:44.153Z,100.00
2023-03-11T21:49:14.108Z,100.00
2023-03-11T21:51:42.977Z,100.00
2023-03-11T21:54:15.330Z,100.00
2023-03-11T21:56:52.039Z,100.00
2023-03-11T21:59:22.479Z,100.00
2023-03-11T22:02:02.587Z,100.00
2023-03-11T22:04:35.797Z,100.00
2023-03-11T22:07:04.675Z,100.00
2023-03-11T22:09:37.656Z,100.00
2023-03-11T22:12:09.230Z,100.00
2023-03-11T22:14:44.659Z,100.00
2023-03-11T22:17:17.991Z,100.00
2023-03-11T22:19:46.970Z,100.00
2023-03-11T22:22:25.650Z,100.00
2023-03-11T22:24:55.725Z,100.00
2023-03-11T22:27:23.840Z,100.00
2023-03-11T22:30:17.086Z,100.00
2023-03-11T22:32:51.073Z,100.00
2023-03-11T22:35:20.670Z,100.00
2023-03-11T22:37:48.426Z,100.00
2023-03-11T22:40:31.253Z,100.00
2023-03-11T22:43:00.595Z,100.00
2023-03-11T22:45:31.750Z,100.00
2023-03-11T22:47:59.547Z,100.00
2023-03-11T22:50:34.462Z,100.00
2023-03-11T22:53:08.374Z,100.00
2023-03-11T22:55:43.342Z,100.00
2023-03-11T22:58:34.338Z,100.00
2023-03-11T23:01:03.826Z,100.00
2023-03-11T23:03:34.531Z,100.00
2023-03-11T23:06:07.651Z,100.00
2023-03-11T23:08:34.931Z,100.00
2023-03-11T23:11:22.968Z,100.00
2023-03-11T23:13:53.896Z,100.00
2023-03-11T23:16:25.627Z,100.00
2023-03-11T23:18:54.442Z,100.00
2023-03-11T23:21:30.512Z,99.87
2023-03-11T23:24:00.316Z,99.69
2023-03-11T23:26:30.797Z,99.58
2023-03-11T23:29:00.513Z,99.37
2023-03-11T23:31:30.199Z,98.84
2023-03-11T23:39:02.871Z,98.48
2023-03-11T23:41:37.262Z,97.84
2023-03-11T23:44:04.681Z,97.47
2023-03-11T23:46:34.590Z,97.61
2023-03-11T23:49:31.268Z,97.52
2023-03-11T23:52:01.732Z,97.53
2023-03-11T23:54:30.708Z,97.35
2023-03-11T23:57:02.794Z,97.02
2023-03-11T23:59:36.592Z,97.16
